Time;durP1;ratioP1;P1;durP2;ratioP2;P2;SDS_P1;SDS_P2;PMS_P1;PMS_P2;Temp;Humidity;BMP_temperature;BMP_pressure;BME280_temperature;BME280_humidity;BME280_pressure;Samples;Min_cycle;Max_cycle;Signal;HPM_P1;HPM_P2
2021/10/14 00:00:00;;;;;;;15.68;10.55;;;;;;;17.17;57.58;99559.52;1854666;77;21002;-60
2021/10/14 00:02:27;;;;;;;13.05;10.35;;;;;;;17.17;57.51;99543.91;1844618;77;21125;-62
2021/10/14 00:04:53;;;;;;;14.68;10.20;;;;;;;17.16;57.46;99559.20;1807390;78;21088;-60
2021/10/14 00:07:20;;;;;;;15.75;10.58;;;;;;;17.16;57.39;99552.48;1834625;77;21892;-62
2021/10/14 00:09:46;;;;;;;12.33;9.80;;;;;;;17.16;57.38;99546.31;1824152;77;21049;-59
2021/10/14 00:12:12;;;;;;;13.28;10.32;;;;;;;17.16;57.31;99555.70;1837792;77;21006;-60
2021/10/14 00:14:39;;;;;;;14.68;9.65;;;;;;;17.15;57.26;99553.52;1833391;77;21165;-61
2021/10/14 00:17:05;;;;;;;11.90;9.48;;;;;;;17.15;57.23;99559.41;1830467;77;21033;-60
2021/10/14 00:19:32;;;;;;;12.60;9.68;;;;;;;17.15;57.17;99560.22;1842504;77;21049;-60
2021/10/14 00:21:59;;;;;;;14.75;11.15;;;;;;;17.16;57.16;99559.73;1837266;77;20986;-60
2021/10/14 00:24:25;;;;;;;14.18;10.40;;;;;;;17.15;57.10;99566.12;1844632;77;21480;-60
2021/10/14 00:26:51;;;;;;;14.50;11.22;;;;;;;17.15;57.08;99570.96;1835745;77;21096;-59
2021/10/14 00:29:19;;;;;;;13.20;9.85;;;;;;;17.14;57.04;99563.15;1849941;77;20986;-59
2021/10/14 00:31:45;;;;;;;12.07;9.55;;;;;;;17.15;56.99;99570.96;1820328;77;20992;-60
2021/10/14 00:34:12;;;;;;;11.75;9.93;;;;;;;17.14;56.98;99562.62;1841491;77;21005;-63
2021/10/14 00:36:38;;;;;;;13.38;10.00;;;;;;;17.14;56.92;99569.86;1832294;77;21075;-61
2021/10/14 00:39:04;;;;;;;12.88;9.90;;;;;;;17.13;56.94;99572.22;1853797;77;20958;-59
2021/10/14 00:41:31;;;;;;;12.65;9.80;;;;;;;17.12;56.91;99571.94;1854385;77;21198;-60
2021/10/14 00:43:58;;;;;;;11.60;9.15;;;;;;;17.12;56.89;99577.30;1857982;77;21013;-60
2021/10/14 00:46:24;;;;;;;12.25;8.40;;;;;;;17.12;56.87;99586.17;1835451;77;21050;-60
2021/10/14 00:48:52;;;;;;;11.45;9.18;;;;;;;17.12;56.88;99586.70;1823291;77;21083;-60
2021/10/14 00:51:19;;;;;;;13.43;9.55;;;;;;;17.11;56.86;99579.14;1827886;77;21184;-60
2021/10/14 00:53:46;;;;;;;10.40;8.73;;;;;;;17.11;56.86;99580.48;1845187;77;21052;-61
2021/10/14 00:56:13;;;;;;;10.43;8.55;;;;;;;17.11;56.85;99583.17;1850085;76;21068;-60
2021/10/14 00:58:40;;;;;;;11.65;9.00;;;;;;;17.10;56.86;99582.36;1820399;77;20998;-59
2021/10/14 01:01:06;;;;;;;10.08;8.63;;;;;;;17.10;56.86;99584.22;1856293;76;21545;-60
2021/10/14 01:03:32;;;;;;;11.30;10.00;;;;;;;17.09;56.86;99590.11;1848118;76;21115;-59
2021/10/14 01:05:59;;;;;;;10.72;8.80;;;;;;;17.09;56.86;99590.11;1853397;76;21045;-60
2021/10/14 01:08:25;;;;;;;13.60;9.50;;;;;;;17.09;56.84;99598.66;1844236;77;21033;-60
2021/10/14 01:10:52;;;;;;;16.30;8.60;;;;;;;17.09;56.84;99596.83;1854297;76;21049;-60
2021/10/14 01:13:18;;;;;;;9.65;8.18;;;;;;;17.08;56.85;99595.16;1855746;77;21433;-61
2021/10/14 01:15:44;;;;;;;9.60;8.23;;;;;;;17.08;56.87;99602.41;1846900;77;21031;-60
2021/10/14 01:18:13;;;;;;;10.40;8.05;;;;;;;17.08;56.87;99604.56;1833070;76;20990;-60
2021/10/14 01:20:40;;;;;;;11.80;8.53;;;;;;;17.08;56.87;99603.22;1845373;77;20998;-60
2021/10/14 01:23:07;;;;;;;9.58;7.70;;;;;;;17.07;56.87;99602.92;1836736;77;21683;-60
2021/10/14 01:25:34;;;;;;;8.45;7.62;;;;;;;17.07;56.87;99616.34;1843681;76;21014;-60
2021/10/14 01:28:00;;;;;;;9.08;7.70;;;;;;;17.07;56.92;99608.80;1848868;77;21186;-61
2021/10/14 01:30:27;;;;;;;9.10;8.18;;;;;;;17.06;56.93;99616.03;1855734;77;21104;-61
2021/10/14 01:32:53;;;;;;;10.18;8.03;;;;;;;17.06;56.95;99616.03;1842307;77;21043;-59
2021/10/14 01:35:20;;;;;;;10.25;8.43;;;;;;;17.05;56.97;99621.08;1837548;77;21726;-60
2021/10/14 01:37:47;;;;;;;8.20;7.30;;;;;;;17.05;56.96;99626.97;1832615;77;21064;-60
2021/10/14 01:40:13;;;;;;;9.03;7.62;;;;;;;17.05;56.98;99630.47;1837509;77;21160;-60
2021/10/14 01:42:40;;;;;;;9.83;7.90;;;;;;;17.03;57.00;99620.47;1830111;77;21037;-60
2021/10/14 01:45:07;;;;;;;9.60;7.90;;;;;;;17.03;56.99;99636.57;1825162;77;21044;-61
2021/10/14 01:47:34;;;;;;;8.33;7.17;;;;;;;17.03;57.00;99639.25;1815814;77;21114;-60
2021/10/14 01:50:01;;;;;;;8.93;7.70;;;;;;;17.03;57.04;99635.23;1839258;77;20978;-60
2021/10/14 01:52:27;;;;;;;8.55;7.62;;;;;;;17.03;57.07;99641.13;1834001;77;21197;-60
2021/10/14 01:54:53;;;;;;;9.43;7.15;;;;;;;17.03;57.05;99642.46;1836293;77;21026;-60
2021/10/14 01:57:20;;;;;;;10.58;8.03;;;;;;;17.02;57.05;99649.70;1830754;77;21450;-61
2021/10/14 01:59:47;;;;;;;8.65;7.75;;;;;;;17.01;57.03;99644.01;1833843;77;21087;-60
2021/10/14 02:02:14;;;;;;;8.90;7.25;;;;;;;17.01;57.03;99648.03;1824983;77;21057;-60
2021/10/14 02:04:40;;;;;;;7.70;6.92;;;;;;;17.02;57.03;99644.86;1824165;77;21121;-59
2021/10/14 02:07:07;;;;;;;9.15;6.65;;;;;;;17.00;57.03;99646.93;1830721;77;21024;-59
2021/10/14 02:09:34;;;;;;;9.13;7.90;;;;;;;17.00;57.03;99647.75;1810303;77;21061;-60
2021/10/14 02:12:00;;;;;;;8.33;7.53;;;;;;;16.99;57.02;99658.16;1812385;77;21013;-61
2021/10/14 02:14:27;;;;;;;8.75;6.87;;;;;;;16.99;57.01;99665.39;1832988;77;21024;-60
2021/10/14 02:16:53;;;;;;;9.75;7.62;;;;;;;16.98;57.00;99661.05;1836117;77;21735;-60
2021/10/14 02:19:20;;;;;;;8.30;7.47;;;;;;;16.97;57.00;99666.94;1832549;77;21553;-60
2021/10/14 02:21:46;;;;;;;8.25;7.08;;;;;;;16.96;57.00;99665.81;1825286;77;21632;-60
2021/10/14 02:24:14;;;;;;;8.00;6.75;;;;;;;16.95;56.97;99663.65;1841319;77;21033;-61
2021/10/14 02:26:41;;;;;;;7.62;6.70;;;;;;;16.95;56.97;99668.20;1820154;77;21021;-60
2021/10/14 02:29:12;;;;;;;8.75;7.00;;;;;;;16.94;56.94;99672.75;1832035;77;21114;-59
2021/10/14 02:31:37;;;;;;;7.80;6.30;;;;;;;16.94;56.93;99678.12;1830607;77;21052;-60
2021/10/14 02:34:04;;;;;;;8.50;7.65;;;;;;;16.94;56.92;99679.95;1812639;77;21002;-59
2021/10/14 02:36:30;;;;;;;8.98;7.37;;;;;;;16.93;56.92;99679.66;1828539;77;21057;-59
2021/10/14 02:38:57;;;;;;;7.90;7.10;;;;;;;16.92;56.94;99677.51;1830164;77;21088;-60
2021/10/14 02:41:25;;;;;;;8.40;7.42;;;;;;;16.90;56.94;99679.05;1827380;77;21072;-60
2021/10/14 02:43:51;;;;;;;9.58;7.70;;;;;;;16.90;56.95;99688.94;1837333;77;21006;-60
2021/10/14 02:46:17;;;;;;;8.63;6.60;;;;;;;16.88;56.95;99695.87;1828746;77;21010;-59
2021/10/14 02:48:44;;;;;;;9.28;7.10;;;;;;;16.88;56.93;99697.72;1838223;77;21583;-60
2021/10/14 02:51:10;;;;;;;8.38;6.72;;;;;;;16.87;56.96;99695.56;1834410;77;21008;-63
2021/10/14 02:53:38;;;;;;;10.25;6.90;;;;;;;16.86;56.99;99739.53;1832451;77;21001;-63
2021/10/14 02:56:05;;;;;;;7.30;6.60;;;;;;;16.86;57.18;99732.83;1831228;77;21050;-63
2021/10/14 02:58:31;;;;;;;8.10;6.72;;;;;;;16.85;57.16;99735.72;1846887;77;21092;-64
2021/10/14 03:00:59;;;;;;;7.85;7.00;;;;;;;16.83;56.97;99736.45;1827919;77;21085;-63
2021/10/14 03:03:26;;;;;;;6.87;6.17;;;;;;;16.82;56.77;99740.14;1834991;77;21017;-64
2021/10/14 03:05:54;;;;;;;7.67;6.12;;;;;;;16.79;56.56;99736.52;1841265;77;21083;-64
2021/10/14 03:08:21;;;;;;;7.87;6.70;;;;;;;16.76;56.40;99740.95;1822861;77;21037;-62
2021/10/14 03:10:47;;;;;;;7.00;6.17;;;;;;;16.75;56.20;99740.66;1845564;77;20996;-63
2021/10/14 03:13:13;;;;;;;8.55;6.40;;;;;;;16.71;56.06;99744.27;1825274;77;21030;-64
2021/10/14 03:15:41;;;;;;;7.53;6.75;;;;;;;16.69;55.89;99746.34;1831788;77;21072;-65
2021/10/14 03:18:09;;;;;;;7.58;6.60;;;;;;;16.67;55.74;99743.86;1770047;79;21949;-64
2021/10/14 03:20:35;;;;;;;6.92;6.22;;;;;;;16.65;55.59;99739.72;1801123;79;21013;-65
2021/10/14 03:23:02;;;;;;;6.92;6.22;;;;;;;16.64;55.43;99750.16;1789070;79;21034;-69
2021/10/14 03:25:28;;;;;;;7.40;5.50;;;;;;;16.61;55.27;99751.41;1795290;79;21031;-70
2021/10/14 03:27:55;;;;;;;7.03;5.78;;;;;;;16.58;55.16;99753.14;1794744;79;21001;-69
2021/10/14 03:30:21;;;;;;;6.75;6.15;;;;;;;16.56;55.02;99759.23;1803602;79;21723;-69
2021/10/14 03:32:47;;;;;;;6.87;5.80;;;;;;;16.54;54.88;99761.30;1766203;79;21102;-70
2021/10/14 03:35:14;;;;;;;6.97;6.28;;;;;;;16.50;54.74;99755.52;1784509;80;21100;-69
2021/10/14 03:37:40;;;;;;;6.22;5.62;;;;;;;16.49;54.60;99757.87;1776463;80;21565;-69
2021/10/14 03:40:09;;;;;;;6.90;6.25;;;;;;;16.46;54.49;99761.52;1786910;80;21041;-69
2021/10/14 03:42:35;;;;;;;6.50;5.90;;;;;;;16.44;54.36;99764.39;1750821;80;21119;-69
2021/10/14 03:45:01;;;;;;;6.10;5.50;;;;;;;16.42;54.24;99764.30;1764114;80;21048;-69
2021/10/14 03:47:28;;;;;;;6.60;5.90;;;;;;;16.40;54.15;99766.33;1820425;77;21469;-69
2021/10/14 03:49:54;;;;;;;6.42;5.70;;;;;;;16.37;54.01;99772.94;1820115;78;21061;-70
2021/10/14 03:52:21;;;;;;;6.25;5.42;;;;;;;16.35;53.95;99758.09;1812372;78;21005;-70
2021/10/14 03:54:49;;;;;;;6.58;5.90;;;;;;;16.33;53.83;99773.05;1814747;78;21227;-70
2021/10/14 03:57:18;;;;;;;6.30;5.72;;;;;;;16.29;53.74;99772.63;1810858;78;21024;-69
2021/10/14 03:59:44;;;;;;;7.47;5.72;;;;;;;16.27;53.66;99781.38;1817200;78;21036;-69
2021/10/14 04:02:10;;;;;;;6.72;5.37;;;;;;;16.24;53.58;99780.44;1818782;78;20994;-69
2021/10/14 04:04:36;;;;;;;6.40;5.08;;;;;;;16.22;53.49;99785.18;1806761;78;21032;-70
2021/10/14 04:07:03;;;;;;;6.78;5.53;;;;;;;16.21;53.42;99794.27;1770374;80;21120;-70
2021/10/14 04:09:30;;;;;;;7.08;5.80;;;;;;;16.19;53.33;99788.28;1753309;81;21018;-70
2021/10/14 04:11:57;;;;;;;5.55;5.05;;;;;;;16.16;53.25;99794.04;1818182;78;21105;-69
2021/10/14 04:14:23;;;;;;;5.92;5.33;;;;;;;16.15;53.18;99798.26;1819447;78;21493;-70
2021/10/14 04:16:50;;;;;;;6.95;5.60;;;;;;;16.11;53.13;99804.05;1812565;78;21069;-69
2021/10/14 04:19:16;;;;;;;6.70;5.75;;;;;;;16.09;53.04;99795.38;1813923;78;21263;-69
2021/10/14 04:21:42;;;;;;;7.37;5.40;;;;;;;16.08;53.00;99807.64;1819944;78;20982;-69
2021/10/14 04:24:09;;;;;;;6.17;5.58;;;;;;;16.06;52.93;99805.15;1805143;78;21146;-69
2021/10/14 04:26:36;;;;;;;5.95;5.35;;;;;;;16.03;52.87;99806.91;1809202;78;20995;-69
2021/10/14 04:29:02;;;;;;;5.30;4.80;;;;;;;16.02;52.81;99808.45;1814402;77;21478;-69
2021/10/14 04:31:29;;;;;;;6.85;6.15;;;;;;;16.01;52.74;99814.82;1819953;77;21138;-70
2021/10/14 04:33:55;;;;;;;5.25;4.75;;;;;;;16.00;52.69;99814.53;1818399;78;21013;-70
2021/10/14 04:36:22;;;;;;;5.90;5.35;;;;;;;15.97;52.60;99819.75;1818802;78;21100;-69
2021/10/14 04:38:48;;;;;;;5.83;5.25;;;;;;;15.94;52.57;99814.81;1814533;78;21097;-69
2021/10/14 04:41:15;;;;;;;6.03;5.20;;;;;;;15.92;52.53;99827.06;1814945;77;21041;-70
2021/10/14 04:43:43;;;;;;;5.78;5.25;;;;;;;15.91;52.48;99825.41;1833532;77;21025;-70
2021/10/14 04:46:09;;;;;;;6.17;5.25;;;;;;;15.90;52.42;99827.78;1847864;77;21017;-69
2021/10/14 04:48:35;;;;;;;5.62;4.97;;;;;;;15.89;52.36;99832.81;1830550;77;21514;-69
2021/10/14 04:51:02;;;;;;;6.60;5.35;;;;;;;15.88;52.32;99837.88;1838749;77;21552;-70
2021/10/14 04:53:28;;;;;;;6.62;5.67;;;;;;;15.86;52.26;99837.25;1831857;77;21516;-70
2021/10/14 04:55:54;;;;;;;8.38;5.55;;;;;;;15.85;52.22;99849.50;1844403;77;21104;-70
2021/10/14 04:58:21;;;;;;;6.40;5.80;;;;;;;15.82;52.17;99846.72;1839446;77;21002;-70
2021/10/14 05:00:48;;;;;;;5.87;5.28;;;;;;;15.81;52.13;99853.09;1830518;77;21030;-70
2021/10/14 05:03:14;;;;;;;6.12;5.55;;;;;;;15.80;52.09;99856.80;1818350;77;21072;-70
2021/10/14 05:05:40;;;;;;;7.10;6.17;;;;;;;15.80;52.04;99858.64;1835387;77;21016;-71
2021/10/14 05:08:07;;;;;;;5.80;5.30;;;;;;;15.78;51.98;99862.88;1835699;77;21127;-72
2021/10/14 05:10:35;;;;;;;5.70;5.10;;;;;;;15.77;51.94;99869.24;1845091;77;21085;-69
2021/10/14 05:13:03;;;;;;;6.75;6.05;;;;;;;15.77;51.91;99866.56;1840008;76;21100;-69
2021/10/14 05:15:30;;;;;;;5.92;5.33;;;;;;;15.76;51.86;99868.09;1831604;77;21101;-71
2021/10/14 05:17:56;;;;;;;6.70;5.83;;;;;;;15.75;51.81;99869.95;1840297;77;21021;-69
2021/10/14 05:20:23;;;;;;;7.40;6.10;;;;;;;15.74;51.79;99873.64;1830488;77;21136;-69
2021/10/14 05:22:49;;;;;;;7.30;5.40;;;;;;;15.74;51.74;99876.33;1833306;77;21518;-71
2021/10/14 05:25:16;;;;;;;6.28;5.60;;;;;;;15.73;51.67;99880.05;1837227;77;21077;-69
2021/10/14 05:27:42;;;;;;;6.60;5.67;;;;;;;15.64;51.67;99869.96;1834070;77;21105;-70
2021/10/14 05:30:10;;;;;;;5.72;5.22;;;;;;;15.72;51.61;99884.55;1828818;77;21071;-70
2021/10/14 05:32:36;;;;;;;6.40;5.78;;;;;;;15.71;51.58;99885.56;1832327;77;21113;-69
2021/10/14 05:35:03;;;;;;;5.58;4.90;;;;;;;15.71;51.53;99890.09;1833583;77;21674;-69
2021/10/14 05:37:30;;;;;;;6.90;5.80;;;;;;;15.71;51.50;99890.92;1842929;77;21053;-70
2021/10/14 05:39:56;;;;;;;6.25;5.65;;;;;;;15.70;51.47;99899.99;1826697;77;21038;-69
2021/10/14 05:42:23;;;;;;;6.35;5.75;;;;;;;15.70;51.43;99902.67;1824457;77;20965;-68
2021/10/14 05:44:49;;;;;;;6.22;5.62;;;;;;;15.70;51.40;99905.84;1830204;78;21979;-69
2021/10/14 05:47:15;;;;;;;5.87;5.33;;;;;;;15.71;51.32;99906.98;1836699;77;20997;-71
2021/10/14 05:49:42;;;;;;;5.78;5.17;;;;;;;15.70;51.30;99912.05;1851381;77;21030;-70
2021/10/14 05:52:08;;;;;;;5.85;5.35;;;;;;;15.70;51.26;99913.88;1835932;78;20994;-69
2021/10/14 05:54:35;;;;;;;5.58;5.03;;;;;;;15.70;51.23;99920.57;1834883;77;21009;-69
2021/10/14 05:57:02;;;;;;;6.35;5.70;;;;;;;15.71;51.20;99922.23;1752258;81;23295;-71
2021/10/14 05:59:28;;;;;;;6.70;5.58;;;;;;;15.70;51.15;99926.78;1754413;80;21012;-71
2021/10/14 06:01:54;;;;;;;6.25;5.65;;;;;;;15.71;51.11;99925.73;1836578;78;21046;-71
2021/10/14 06:04:21;;;;;;;6.60;5.62;;;;;;;15.72;51.08;99930.57;1836880;78;21498;-72
2021/10/14 06:06:47;;;;;;;6.00;5.40;;;;;;;15.73;51.02;99932.27;1828406;78;21078;-71
2021/10/14 06:09:14;;;;;;;6.75;6.03;;;;;;;15.73;50.97;99937.63;1834071;78;21110;-70
2021/10/14 06:11:40;;;;;;;6.10;5.50;;;;;;;15.72;50.94;99931.42;1829021;78;21537;-71
2021/10/14 06:14:06;;;;;;;5.55;5.00;;;;;;;15.73;50.92;99936.29;1823354;77;21521;-71
2021/10/14 06:16:33;;;;;;;5.78;5.15;;;;;;;15.73;50.84;99933.61;1834280;78;21490;-70
2021/10/14 06:18:59;;;;;;;5.90;5.40;;;;;;;15.75;50.83;99939.59;1829333;77;21071;-70
2021/10/14 06:21:26;;;;;;;6.25;5.62;;;;;;;15.75;50.77;99938.78;1816045;78;21094;-69
2021/10/14 06:23:52;;;;;;;6.08;5.47;;;;;;;15.75;50.72;99944.95;1829197;77;20994;-71
2021/10/14 06:26:19;;;;;;;6.20;5.60;;;;;;;15.75;50.71;99939.59;1833211;77;21061;-71
2021/10/14 06:28:45;;;;;;;6.17;5.58;;;;;;;15.77;50.66;99954.95;1831905;77;21028;-70
2021/10/14 06:31:12;;;;;;;5.90;5.30;;;;;;;15.77;50.62;99956.81;1833697;77;21513;-70
2021/10/14 06:33:39;;;;;;;6.60;6.00;;;;;;;15.78;50.58;99955.28;1833134;78;21128;-71
2021/10/14 06:36:05;;;;;;;6.67;6.08;;;;;;;15.79;50.53;99957.45;1834961;78;21002;-71
2021/10/14 06:38:32;;;;;;;7.22;6.33;;;;;;;15.79;50.50;99964.96;1833192;78;21049;-70
2021/10/14 06:40:58;;;;;;;6.05;5.45;;;;;;;15.80;50.46;99965.30;1833264;78;21019;-70
2021/10/14 06:43:24;;;;;;;6.37;5.62;;;;;;;15.81;50.42;99974.97;1834261;77;21518;-69
2021/10/14 06:45:51;;;;;;;6.60;5.42;;;;;;;15.84;50.36;99978.60;1833304;77;21104;-69
2021/10/14 06:48:17;;;;;;;6.40;5.80;;;;;;;15.86;50.31;99974.39;1835829;77;21010;-69
2021/10/14 06:50:43;;;;;;;6.22;5.62;;;;;;;15.87;50.26;99976.03;1826108;77;21588;-69
2021/10/14 06:53:11;;;;;;;6.50;5.80;;;;;;;15.88;50.22;99973.68;1809872;77;21121;-71
2021/10/14 06:56:56;;;;;;;6.17;5.58;;;;;;;15.96;50.19;99972.70;1869842;75;29206;-70
2021/10/14 06:59:23;;;;;;;6.20;5.60;;;;;;;15.92;50.12;99974.42;1826198;77;21033;-69
2021/10/14 07:01:50;;;;;;;6.75;6.05;;;;;;;15.95;50.07;99981.22;1826010;77;21216;-70
2021/10/14 07:04:16;;;;;;;6.67;6.08;;;;;;;15.98;49.99;99983.52;1825048;77;21015;-69
2021/10/14 07:06:43;;;;;;;6.05;5.47;;;;;;;15.99;49.95;99981.14;1820454;77;21036;-69
2021/10/14 07:09:09;;;;;;;5.60;5.08;;;;;;;16.01;49.91;99982.29;1823858;78;21521;-70
2021/10/14 07:11:42;;;;;;;6.00;5.47;;;;;;;16.03;49.84;99988.27;1824189;77;21107;-69
2021/10/14 07:14:04;;;;;;;6.05;5.53;;;;;;;16.04;49.80;99994.78;1821069;77;21118;-70
2021/10/14 07:16:30;;;;;;;6.08;5.47;;;;;;;16.07;49.75;99994.89;1823395;77;21513;-70
2021/10/14 07:18:56;;;;;;;5.97;5.37;;;;;;;16.09;49.69;100003.06;1826116;77;20978;-71
2021/10/14 07:21:24;;;;;;;6.47;5.87;;;;;;;16.11;49.64;100005.03;1825984;78;20998;-69
2021/10/14 07:23:51;;;;;;;6.05;5.45;;;;;;;16.13;49.58;99998.14;1821907;77;20990;-71
2021/10/14 07:26:17;;;;;;;6.42;5.83;;;;;;;16.16;49.55;100003.61;1826101;77;21114;-69
2021/10/14 07:28:44;;;;;;;6.25;5.33;;;;;;;16.19;49.50;100010.75;1855408;77;21565;-71
2021/10/14 07:31:10;;;;;;;6.75;6.10;;;;;;;16.22;49.44;100006.31;1804861;77;21033;-70
2021/10/14 07:33:37;;;;;;;6.08;5.47;;;;;;;16.26;49.39;100012.11;1822717;77;21048;-71
2021/10/14 07:36:06;;;;;;;6.20;5.60;;;;;;;16.30;49.30;100007.52;1821607;77;21516;-70
2021/10/14 07:38:32;;;;;;;5.35;4.85;;;;;;;16.33;49.25;100001.44;1825788;78;21147;-70
2021/10/14 07:40:58;;;;;;;5.90;5.30;;;;;;;16.36;49.20;100003.20;1817925;77;21001;-70
2021/10/14 07:43:24;;;;;;;6.50;5.90;;;;;;;16.39;49.14;100004.13;1826012;77;21465;-70
2021/10/14 07:45:51;;;;;;;5.92;5.28;;;;;;;16.43;49.09;100005.91;1825185;77;20991;-71
2021/10/14 07:48:17;;;;;;;6.12;5.60;;;;;;;16.45;49.07;99999.30;1812655;77;21006;-70
2021/10/14 07:50:44;;;;;;;5.70;5.20;;;;;;;16.50;48.98;100001.41;1819753;77;21103;-70
2021/10/14 07:53:13;;;;;;;5.60;5.10;;;;;;;16.53;48.92;100005.01;1816817;78;21598;-70
2021/10/14 07:55:40;;;;;;;5.95;5.45;;;;;;;16.57;48.86;100011.62;1823575;77;21100;-69
2021/10/14 07:58:08;;;;;;;5.95;5.35;;;;;;;16.61;48.83;100014.23;1824403;78;21051;-69
2021/10/14 08:00:36;;;;;;;5.80;5.20;;;;;;;16.65;48.76;100018.17;1818315;78;21006;-70
2021/10/14 08:03:02;;;;;;;5.72;5.22;;;;;;;16.68;48.72;100015.06;1819801;77;21133;-70
2021/10/14 08:05:30;;;;;;;5.00;4.50;;;;;;;16.71;48.67;100016.02;1823491;78;21060;-70
2021/10/14 08:07:57;;;;;;;6.40;5.80;;;;;;;16.76;48.63;100019.95;1824192;78;21487;-70
2021/10/14 08:10:24;;;;;;;6.90;6.20;;;;;;;16.78;48.61;100022.73;1824414;78;21148;-70
2021/10/14 08:12:50;;;;;;;6.05;5.45;;;;;;;16.83;48.57;100024.86;1822458;77;21511;-70
2021/10/14 08:15:17;;;;;;;6.12;5.53;;;;;;;16.84;48.56;100026.01;1811789;77;21133;-70
2021/10/14 08:17:43;;;;;;;5.87;5.22;;;;;;;16.87;48.49;100018.88;1822730;78;21513;-69
2021/10/14 08:20:10;;;;;;;5.97;5.37;;;;;;;16.90;48.45;100025.19;1769927;80;21513;-69
2021/10/14 08:22:36;;;;;;;5.80;5.30;;;;;;;16.93;48.37;100023.95;1754481;81;21062;-70
2021/10/14 08:25:08;;;;;;;6.08;5.58;;;;;;;16.96;48.34;100022.70;1786736;80;21056;-69
2021/10/14 08:27:34;;;;;;;5.70;5.17;;;;;;;16.99;48.28;100022.31;1767041;79;21763;-69
2021/10/14 08:30:02;;;;;;;5.72;5.20;;;;;;;17.01;48.22;100026.95;1771381;79;21489;-71
2021/10/14 08:32:29;;;;;;;5.95;5.28;;;;;;;17.03;48.18;100023.55;1764959;79;21568;-70
2021/10/14 08:34:55;;;;;;;5.87;5.37;;;;;;;17.05;48.13;100028.20;1754599;80;21028;-70
2021/10/14 08:37:22;;;;;;;6.47;5.87;;;;;;;17.09;48.06;100022.73;1772125;80;21097;-72
2021/10/14 08:39:49;;;;;;;5.75;5.25;;;;;;;17.12;48.01;100030.92;1764009;80;21854;-73
2021/10/14 08:42:16;;;;;;;6.20;5.60;;;;;;;17.15;47.92;100033.17;1748654;80;21599;-70
2021/10/14 08:44:43;;;;;;;5.37;4.87;;;;;;;17.19;47.89;100034.42;1754593;80;21069;-72
2021/10/14 08:47:12;;;;;;;6.40;5.80;;;;;;;17.22;47.85;100037.52;1771495;80;21639;-71
2021/10/14 08:49:45;;;;;;;6.20;5.60;;;;;;;17.25;47.78;100032.28;1775130;80;21004;-70
2021/10/14 08:52:13;;;;;;;5.28;4.83;;;;;;;17.28;47.75;100035.36;1767939;80;21837;-70
2021/10/14 08:54:40;;;;;;;6.15;5.55;;;;;;;17.31;47.62;100035.48;1766181;80;21565;-70
2021/10/14 08:57:07;;;;;;;5.83;5.17;;;;;;;17.35;47.62;100032.70;1756797;80;21028;-70
2021/10/14 08:59:34;;;;;;;5.90;5.40;;;;;;;17.40;47.55;100035.60;1766916;80;21210;-71
2021/10/14 09:02:16;;;;;;;5.47;4.97;;;;;;;17.46;47.53;100033.44;1768723;79;20995;-70
2021/10/14 09:04:57;;;;;;;5.08;4.62;;;;;;;17.52;47.46;100040.34;1760833;80;21159;-70
2021/10/14 09:07:26;;;;;;;5.33;4.83;;;;;;;17.59;47.44;100044.67;1800463;77;21017;-70
2021/10/14 09:09:56;;;;;;;5.58;5.08;;;;;;;17.64;47.38;100042.20;1809690;77;21034;-70
2021/10/14 09:12:23;;;;;;;5.85;4.90;;;;;;;17.72;47.37;100048.41;1806752;78;21555;-71
2021/10/14 09:15:03;;;;;;;5.53;5.03;;;;;;;17.79;47.27;100054.59;1808989;77;21141;-70
2021/10/14 09:17:48;;;;;;;5.67;5.17;;;;;;;17.86;47.16;100052.77;1795939;78;21129;-69
2021/10/14 09:20:28;;;;;;;5.47;4.97;;;;;;;17.94;47.02;100057.91;1813119;77;21005;-70
2021/10/14 09:23:27;;;;;;;5.30;4.80;;;;;;;18.03;46.96;100059.88;1808797;77;21018;-71
2021/10/14 09:25:54;;;;;;;5.80;5.30;;;;;;;18.11;46.85;100061.00;1806075;78;20993;-71
2021/10/14 09:28:26;;;;;;;5.28;4.78;;;;;;;18.21;46.77;100060.56;1801776;77;21011;-69
2021/10/14 09:31:04;;;;;;;5.37;4.87;;;;;;;18.30;46.72;100058.48;1803686;77;26544;-72
2021/10/14 09:33:43;;;;;;;5.37;4.87;;;;;;;18.05;46.61;100006.20;1797952;77;21041;-71
2021/10/14 09:36:27;;;;;;;4.83;4.22;;;;;;;18.46;46.52;100062.05;1809890;77;21032;-70
2021/10/14 09:39:03;;;;;;;4.75;4.30;;;;;;;18.54;46.43;100054.26;1783917;78;21046;-71
2021/10/14 09:41:38;;;;;;;5.20;4.70;;;;;;;18.59;46.38;100053.93;1792395;77;21122;-70
2021/10/14 09:44:06;;;;;;;4.92;4.40;;;;;;;18.67;46.30;100051.52;1801563;77;21201;-69
2021/10/14 09:46:40;;;;;;;4.58;4.08;;;;;;;18.76;46.24;100058.84;1810819;77;21005;-71
2021/10/14 09:49:09;;;;;;;5.33;4.83;;;;;;;18.83;46.18;100058.30;1807414;77;20998;-69
2021/10/14 09:51:36;;;;;;;5.20;4.70;;;;;;;18.91;46.09;100059.92;1835203;77;21120;-70
2021/10/14 09:54:02;;;;;;;4.50;4.10;;;;;;;18.97;46.02;100057.21;1807602;77;21113;-69
2021/10/14 09:56:29;;;;;;;4.58;4.15;;;;;;;19.01;45.94;100065.69;1810820;77;21797;-70
2021/10/14 09:58:58;;;;;;;4.55;4.10;;;;;;;19.04;45.87;100067.43;1812538;77;21053;-70
2021/10/14 10:01:24;;;;;;;4.83;4.37;;;;;;;19.07;45.79;100070.73;1811141;77;21044;-69
2021/10/14 10:03:52;;;;;;;5.03;4.40;;;;;;;19.09;45.77;100068.12;1805897;78;21009;-69
2021/10/14 10:06:29;;;;;;;4.50;4.10;;;;;;;19.12;45.74;100070.89;1805976;78;20994;-70
2021/10/14 10:08:58;;;;;;;4.62;4.03;;;;;;;19.13;45.68;100068.52;1813975;77;21150;-70
2021/10/14 10:11:25;;;;;;;4.17;3.85;;;;;;;19.13;45.64;100068.52;1813566;77;21005;-70
2021/10/14 10:13:54;;;;;;;4.40;4.03;;;;;;;19.13;45.62;100072.03;1807167;77;22084;-69
2021/10/14 10:16:26;;;;;;;4.92;4.20;;;;;;;19.14;45.60;100075.04;1808248;77;21065;-70
2021/10/14 10:18:54;;;;;;;4.12;3.72;;;;;;;19.17;45.55;100083.20;1824760;77;21024;-70
2021/10/14 10:21:38;;;;;;;4.72;4.33;;;;;;;19.22;45.53;100090.12;1815449;77;21120;-60
2021/10/14 10:24:18;;;;;;;4.75;3.67;;;;;;;19.25;45.52;100088.31;1799468;79;21020;-61
2021/10/14 10:26:48;;;;;;;4.45;4.05;;;;;;;19.31;45.58;100087.98;1786127;78;21073;-60
2021/10/14 10:29:26;;;;;;;4.62;4.22;;;;;;;19.35;45.53;100082.45;1803882;78;21009;-62
2021/10/14 10:31:59;;;;;;;4.67;4.25;;;;;;;19.38;45.54;100087.42;1803066;78;21072;-60
2021/10/14 10:40:01;;;;;;;4.47;4.08;;;;;;;19.49;45.32;100096.66;1815266;77;21045;-60
2021/10/14 10:42:42;;;;;;;4.70;4.30;;;;;;;19.49;45.22;100095.31;1801159;77;21010;-61
2021/10/14 10:45:19;;;;;;;4.45;4.08;;;;;;;19.49;45.16;100094.81;1820366;77;20994;-61
2021/10/14 10:47:56;;;;;;;4.50;4.08;;;;;;;19.51;45.16;100100.80;1822624;77;21124;-61
2021/10/14 10:50:35;;;;;;;4.22;3.83;;;;;;;19.55;45.16;100095.28;1811489;77;21002;-61
2021/10/14 10:53:05;;;;;;;4.85;4.12;;;;;;;19.57;45.18;100105.84;1809703;78;21068;-61
2021/10/14 10:55:39;;;;;;;4.33;3.92;;;;;;;19.58;45.13;100101.56;1807251;77;22378;-60
2021/10/14 10:58:09;;;;;;;4.20;3.83;;;;;;;19.60;45.07;100105.39;1822117;77;21056;-59
2021/10/14 11:00:38;;;;;;;4.60;4.20;;;;;;;19.61;44.98;100103.83;1819606;77;21713;-60
2021/10/14 11:03:17;;;;;;;4.25;3.85;;;;;;;19.63;44.96;100099.58;1811226;78;20998;-61
2021/10/14 11:05:49;;;;;;;5.50;4.12;;;;;;;19.64;44.98;100098.52;1813660;78;21263;-61
2021/10/14 11:08:23;;;;;;;4.30;3.87;;;;;;;19.64;44.97;100107.45;1820282;77;21099;-62
2021/10/14 11:10:56;;;;;;;4.03;3.60;;;;;;;19.62;44.90;100104.14;1819335;78;21679;-60
2021/10/14 11:13:26;;;;;;;4.37;3.98;;;;;;;19.61;44.86;100113.79;1824158;77;21892;-60
2021/10/14 11:15:54;;;;;;;4.30;3.90;;;;;;;19.60;44.88;100117.52;1819540;78;21016;-60
2021/10/14 11:18:22;;;;;;;4.67;4.28;;;;;;;19.60;44.83;100112.13;1817698;77;20989;-60
2021/10/14 11:20:58;;;;;;;3.85;3.45;;;;;;;19.57;44.80;100105.31;1822771;77;21556;-61
2021/10/14 11:23:29;;;;;;;4.08;3.77;;;;;;;19.56;44.80;100117.12;1845237;77;21016;-61
2021/10/14 11:26:09;;;;;;;4.60;4.20;;;;;;;19.55;44.77;100114.67;1806867;78;21267;-62
2021/10/14 11:29:05;;;;;;;3.90;3.60;;;;;;;19.52;44.76;100117.26;1820354;77;21493;-62
2021/10/14 11:31:45;;;;;;;3.72;3.42;;;;;;;19.50;44.72;100120.69;1805783;77;21618;-60
2021/10/14 11:34:20;;;;;;;4.20;3.77;;;;;;;19.47;44.72;100123.84;1802635;77;21050;-60
2021/10/14 11:36:54;;;;;;;4.55;4.10;;;;;;;19.44;44.70;100123.73;1826068;77;20994;-61
2021/10/14 11:39:26;;;;;;;4.35;3.95;;;;;;;19.42;44.68;100124.47;1813117;77;22071;-61